Terminal Aerodrome Forecast
Issued by NWS Rapid City, SD

Home | Current Version | Previous Version | Graphics & Text | Print | Product List | Glossary Off
Versions: 1 2 3 4 5 6 7 8 9 10 11 12 13

128
FTUS43 KUNR 222320
TAFRAP
TAF
KRAP 222320Z 2300/2324 25011KT P6SM BKN200
     FM230300 32022G32KT P6SM BKN100
     FM231500 33035G45KT P6SM SCT200=

USA.gov is the U.S. government's official web portal to all federal, state and local government web resources and services.